Time;durP1;ratioP1;P1;durP2;ratioP2;P2;SDS_P1;SDS_P2;PMS_P1;PMS_P2;Temp;Humidity;BMP_temperature;BMP_pressure;BME280_temperature;BME280_humidity;BME280_pressure;Samples;Min_cycle;Max_cycle;Signal;HPM_P1;HPM_P2
2022/09/02 00:01:23;;;;;;;3.05;2.00;;;;;;;9.87;100.00;98775.00;2626720;28;20104;-84
2022/09/02 00:02:38;;;;;;;4.10;2.20;;;;;;;9.94;100.00;98781.00;2627070;28;20040;-84
2022/09/02 00:03:57;;;;;;;3.45;2.30;;;;;;;10.02;100.00;98768.63;2626810;28;20197;-83
2022/09/02 00:05:13;;;;;;;4.68;2.58;;;;;;;10.12;100.00;98772.75;2625971;28;20117;-84
2022/09/02 00:06:30;;;;;;;3.10;2.15;;;;;;;10.27;100.00;98778.59;2628102;28;20055;-86
2022/09/02 00:07:45;;;;;;;3.95;1.80;;;;;;;10.15;100.00;98777.94;2625445;28;20118;-83
2022/09/02 00:09:03;;;;;;;2.35;2.00;;;;;;;10.08;100.00;98776.34;2620389;28;20583;-84
2022/09/02 00:10:18;;;;;;;3.38;2.20;;;;;;;10.12;100.00;98775.38;2628530;28;20530;-84
2022/09/02 00:11:35;;;;;;;4.18;1.90;;;;;;;10.14;100.00;98777.97;2629016;28;20048;-83
2022/09/02 00:12:52;;;;;;;2.88;2.13;;;;;;;10.17;100.00;98776.16;2628505;28;20079;-90
2022/09/02 00:14:10;;;;;;;3.08;1.98;;;;;;;10.20;100.00;98775.25;2629374;28;20048;-83
2022/09/02 00:15:26;;;;;;;2.72;1.80;;;;;;;10.21;100.00;98765.63;2628208;28;20461;-84
2022/09/02 00:16:49;;;;;;;3.97;2.10;;;;;;;10.24;100.00;98768.16;2628717;28;20047;-83
2022/09/02 00:18:05;;;;;;;5.75;2.00;;;;;;;10.18;100.00;98766.53;2628700;28;20056;-84
2022/09/02 00:19:24;;;;;;;3.00;2.30;;;;;;;10.25;100.00;98764.66;2628910;28;20067;-83
2022/09/02 00:20:42;;;;;;;3.85;2.13;;;;;;;10.20;100.00;98766.50;2628859;28;20059;-84
2022/09/02 00:21:59;;;;;;;4.22;2.10;;;;;;;10.15;100.00;98759.63;2628876;28;20051;-88
2022/09/02 00:23:15;;;;;;;6.43;2.20;;;;;;;10.09;100.00;98767.59;2628843;28;20143;-88
2022/09/02 00:24:31;;;;;;;2.42;2.00;;;;;;;10.10;100.00;98766.69;2628769;28;20047;-85
2022/09/02 00:25:47;;;;;;;2.95;2.10;;;;;;;10.07;100.00;98769.38;2628771;28;20928;-83
2022/09/02 00:27:03;;;;;;;3.42;2.15;;;;;;;10.09;100.00;98769.38;2628994;28;20048;-83
2022/09/02 00:28:18;;;;;;;2.10;1.90;;;;;;;9.99;100.00;98764.31;2628706;28;20048;-84
2022/09/02 00:29:34;;;;;;;2.20;1.73;;;;;;;9.99;100.00;98768.69;2628954;28;20044;-83
2022/09/02 00:30:50;;;;;;;3.38;2.10;;;;;;;9.94;100.00;98767.91;2628653;28;20126;-84
2022/09/02 00:32:05;;;;;;;3.33;2.17;;;;;;;9.98;100.00;98762.59;2628905;28;20063;-84
2022/09/02 00:33:21;;;;;;;2.55;2.03;;;;;;;10.06;100.00;98758.94;2628782;28;20646;-85
2022/09/02 00:34:37;;;;;;;5.32;2.10;;;;;;;10.03;100.00;98757.28;2628275;28;20450;-83
2022/09/02 00:35:53;;;;;;;3.95;2.10;;;;;;;10.04;100.00;98759.84;2628487;28;20060;-84
2022/09/02 00:37:08;;;;;;;5.32;1.83;;;;;;;10.09;100.00;98764.13;2628862;28;20444;-83
2022/09/02 00:38:24;;;;;;;4.32;2.45;;;;;;;10.04;100.00;98759.84;2628614;28;20123;-84
2022/09/02 00:39:39;;;;;;;2.65;2.00;;;;;;;10.07;100.00;98761.53;2628727;28;20044;-84
2022/09/02 00:40:55;;;;;;;3.40;2.20;;;;;;;10.04;100.00;98762.44;2628624;28;20052;-85
2022/09/02 00:42:11;;;;;;;2.30;2.10;;;;;;;10.00;100.00;98765.19;2628753;28;20051;-84
2022/09/02 00:43:49;;;;;;;3.35;2.47;;;;;;;9.97;100.00;98766.09;2628514;28;20075;-84
2022/09/02 00:45:07;;;;;;;6.00;2.10;;;;;;;9.95;100.00;98762.66;2628930;28;20525;-84
2022/09/02 00:46:26;;;;;;;5.43;2.17;;;;;;;9.89;100.00;98762.75;2628608;28;20113;-83
2022/09/02 00:47:41;;;;;;;4.95;2.17;;;;;;;9.90;100.00;98764.50;2628805;28;20050;-85
2022/09/02 00:49:25;;;;;;;3.63;2.10;;;;;;;9.86;100.00;98762.84;2628232;28;20063;-88
2022/09/02 00:50:41;;;;;;;3.30;2.22;;;;;;;9.94;100.00;98760.06;2628687;28;20395;-84
2022/09/02 00:52:03;;;;;;;3.05;2.20;;;;;;;9.99;100.00;98759.09;2628639;28;20051;-84
2022/09/02 00:53:19;;;;;;;2.35;2.00;;;;;;;10.02;100.00;98761.63;2628602;28;20047;-84
2022/09/02 00:54:39;;;;;;;2.00;1.80;;;;;;;10.01;100.00;98757.28;2628651;28;20505;-84
2022/09/02 00:55:56;;;;;;;3.13;2.33;;;;;;;10.03;100.00;98755.50;2628772;28;20074;-83
2022/09/02 00:57:18;;;;;;;2.65;2.00;;;;;;;10.07;100.00;98752.84;2628587;28;20086;-83
2022/09/02 00:58:36;;;;;;;2.65;2.03;;;;;;;10.09;100.00;98764.13;2628560;28;20412;-84
2022/09/02 01:00:01;;;;;;;2.00;1.80;;;;;;;10.01;100.00;98759.06;2628532;28;20386;-86
2022/09/02 01:01:17;;;;;;;4.88;2.10;;;;;;;9.97;100.00;98757.38;2628054;28;20043;-83
2022/09/02 01:02:36;;;;;;;4.75;2.30;;;;;;;9.93;100.00;98761.84;2628184;28;20501;-84
2022/09/02 01:03:52;;;;;;;2.97;2.22;;;;;;;9.97;100.00;98754.75;2628171;28;20044;-86
2022/09/02 01:05:11;;;;;;;4.90;2.35;;;;;;;10.05;100.00;98752.88;2628397;28;20120;-84
2022/09/02 01:06:29;;;;;;;4.30;2.40;;;;;;;10.13;100.00;98755.31;2628041;28;20478;-84
2022/09/02 01:07:46;;;;;;;2.55;2.17;;;;;;;10.17;100.00;98751.72;2628230;28;20462;-83
2022/09/02 01:09:08;;;;;;;4.57;2.00;;;;;;;10.20;100.00;98756.06;2628198;28;20842;-87
2022/09/02 01:10:25;;;;;;;;;;;;;;;10.22;100.00;98752.50;2628517;28;20048;-83
2022/09/02 01:11:46;;;;;;;3.15;1.95;;;;;;;10.23;100.00;98755.97;2628289;28;19923;-83
2022/09/02 01:13:07;;;;;;;3.03;2.40;;;;;;;10.29;100.00;98755.84;2628240;28;20051;-83
2022/09/02 01:14:23;;;;;;;3.45;2.30;;;;;;;10.26;100.00;98756.78;2628280;28;20051;-85
2022/09/02 01:15:44;;;;;;;3.05;2.30;;;;;;;10.24;100.00;98755.94;2627942;28;20078;-88
2022/09/02 01:17:01;;;;;;;3.05;2.50;;;;;;;10.27;100.00;98755.88;2627853;28;20062;-83
2022/09/02 01:18:27;;;;;;;3.33;2.05;;;;;;;10.28;100.00;98747.13;2627590;28;20048;-83
2022/09/02 01:19:48;;;;;;;3.30;2.08;;;;;;;10.33;100.00;98749.66;2627981;28;20044;-86
2022/09/02 01:21:04;;;;;;;3.38;2.50;;;;;;;10.34;100.00;98753.13;2627869;28;20052;-83
2022/09/02 01:22:26;;;;;;;3.63;2.40;;;;;;;10.36;100.00;98746.13;2627886;28;20051;-87
2022/09/02 01:23:42;;;;;;;4.78;2.20;;;;;;;10.39;100.00;98743.44;2628702;28;20052;-83
2022/09/02 01:25:11;;;;;;;2.80;2.17;;;;;;;10.40;100.00;98748.59;2627924;28;20101;-83
2022/09/02 01:26:26;;;;;;;3.95;2.35;;;;;;;10.47;100.00;98749.38;2628017;28;20052;-83
2022/09/02 01:27:42;;;;;;;3.40;2.38;;;;;;;10.50;100.00;98749.31;2627478;28;20555;-83
2022/09/02 01:28:58;;;;;;;4.82;2.40;;;;;;;10.55;100.00;98746.59;2627875;28;20459;-84
2022/09/02 01:30:20;;;;;;;5.63;2.55;;;;;;;10.54;100.00;98748.34;2623388;28;20051;-83
2022/09/02 01:31:36;;;;;;;3.78;2.28;;;;;;;10.54;100.00;98756.19;2627514;28;20478;-83
2022/09/02 01:32:52;;;;;;;8.13;2.20;;;;;;;10.57;100.00;98750.88;2627997;28;20083;-83
2022/09/02 01:34:08;;;;;;;3.15;2.42;;;;;;;10.64;100.00;98756.00;2627800;28;20048;-87
2022/09/02 01:35:24;;;;;;;2.53;2.33;;;;;;;10.70;100.00;98745.38;2627790;28;20608;-84
2022/09/02 01:36:41;;;;;;;2.78;2.38;;;;;;;10.73;100.00;98751.41;2627801;28;20044;-83
2022/09/02 01:37:58;;;;;;;4.47;2.28;;;;;;;10.76;100.00;98746.97;2627599;28;20047;-84
2022/09/02 01:39:14;;;;;;;3.30;2.58;;;;;;;10.79;100.00;98745.16;2628388;28;20040;-83
2022/09/02 01:40:31;;;;;;;3.67;2.53;;;;;;;10.87;100.00;98750.22;2628029;28;20155;-84
2022/09/02 01:41:47;;;;;;;3.67;2.50;;;;;;;10.85;100.00;98752.84;2628080;28;20052;-84
2022/09/02 01:43:13;;;;;;;4.32;2.65;;;;;;;10.81;100.00;98752.97;2628123;28;20140;-83
2022/09/02 01:44:29;;;;;;;4.35;2.42;;;;;;;10.80;100.00;98748.63;2627776;28;20079;-85
2022/09/02 01:45:46;;;;;;;2.72;2.08;;;;;;;10.75;100.00;98751.34;2628352;28;20082;-84
2022/09/02 01:47:02;;;;;;;2.80;2.10;;;;;;;10.72;100.00;98752.28;2628032;28;20048;-83
2022/09/02 01:48:19;;;;;;;3.58;2.45;;;;;;;10.73;100.00;98756.63;2627755;28;20055;-87
2022/09/02 01:49:35;;;;;;;3.83;2.38;;;;;;;10.75;100.00;98746.09;2627744;28;20060;-84
2022/09/02 01:50:55;;;;;;;4.05;2.30;;;;;;;10.72;100.00;98748.81;2628192;28;20052;-84
2022/09/02 01:52:11;;;;;;;3.33;2.10;;;;;;;10.70;100.00;98750.59;2627941;28;20052;-83
2022/09/02 01:53:27;;;;;;;2.55;2.20;;;;;;;10.65;100.00;98742.84;2627748;28;20079;-86
2022/09/02 01:54:43;;;;;;;3.97;2.55;;;;;;;10.54;100.00;98753.56;2628209;28;20055;-84
2022/09/02 01:55:59;;;;;;;2.85;2.10;;;;;;;10.54;100.00;98753.56;2627750;28;20048;-83
2022/09/02 01:57:14;;;;;;;2.45;2.22;;;;;;;10.53;100.00;98748.38;2628080;28;20150;-85
2022/09/02 01:58:30;;;;;;;2.88;2.13;;;;;;;10.51;100.00;98753.66;2627803;28;20082;-84
2022/09/02 01:59:46;;;;;;;6.35;2.10;;;;;;;10.47;100.00;98753.75;2627780;28;20095;-82
2022/09/02 02:01:02;;;;;;;4.03;2.30;;;;;;;10.43;100.00;98753.84;2627859;28;20094;-86
2022/09/02 02:02:18;;;;;;;2.65;2.08;;;;;;;10.43;100.00;98752.94;2627996;28;20105;-84
2022/09/02 02:03:35;;;;;;;2.63;2.40;;;;;;;10.35;100.00;98753.09;2627787;28;20056;-87
2022/09/02 02:04:51;;;;;;;3.17;2.42;;;;;;;10.30;100.00;98745.34;2627995;28;20067;-84
2022/09/02 02:06:10;;;;;;;2.63;2.42;;;;;;;10.29;100.00;98750.63;2628025;28;20406;-84
2022/09/02 02:07:25;;;;;;;2.22;2.00;;;;;;;10.25;100.00;98748.94;2627836;28;20538;-83
2022/09/02 02:08:41;;;;;;;2.60;2.10;;;;;;;10.12;100.00;98743.13;2627818;28;20052;-83
2022/09/02 02:09:57;;;;;;;3.95;2.03;;;;;;;10.09;100.00;98749.28;2627897;28;20289;-83
2022/09/02 02:11:22;;;;;;;5.75;2.13;;;;;;;9.99;100.00;98756.47;2628127;28;20048;-84
2022/09/02 02:12:39;;;;;;;2.55;2.13;;;;;;;10.00;100.00;98752.94;2627827;28;20187;-85
2022/09/02 02:13:54;;;;;;;4.60;2.35;;;;;;;9.99;100.00;98743.38;2627890;28;20128;-83
2022/09/02 02:15:14;;;;;;;1.95;1.73;;;;;;;9.90;100.00;98743.56;2627777;28;20047;-84
2022/09/02 02:16:30;;;;;;;2.10;1.90;;;;;;;9.76;100.00;98751.69;2627967;28;20502;-85
2022/09/02 02:17:46;;;;;;;2.70;2.13;;;;;;;9.62;100.00;98746.72;2627384;28;20067;-84
2022/09/02 02:19:03;;;;;;;4.53;2.60;;;;;;;9.57;100.00;98739.00;2627665;28;20059;-84
2022/09/02 02:20:20;;;;;;;3.88;2.60;;;;;;;9.59;100.00;98745.06;2627534;28;20078;-83
2022/09/02 02:21:35;;;;;;;4.28;1.80;;;;;;;9.60;100.00;98740.66;2627630;28;20929;-83
2022/09/02 02:22:51;;;;;;;2.85;2.00;;;;;;;9.50;100.00;98744.34;2627424;28;20086;-84
2022/09/02 02:24:08;;;;;;;4.90;1.88;;;;;;;9.38;100.00;98743.69;2627951;28;20052;-83
2022/09/02 02:25:24;;;;;;;3.35;2.15;;;;;;;9.41;100.00;98748.00;2627825;28;20440;-83
2022/09/02 02:26:39;;;;;;;2.33;1.80;;;;;;;9.46;100.00;98740.94;2627482;28;20063;-83
2022/09/02 02:27:55;;;;;;;2.83;1.85;;;;;;;9.46;100.00;98747.03;2627420;28;20095;-85
2022/09/02 02:29:12;;;;;;;2.42;1.70;;;;;;;9.42;100.00;98747.09;2627098;28;20048;-85
2022/09/02 02:30:28;;;;;;;1.98;1.77;;;;;;;9.40;100.00;98747.16;2627415;28;20555;-83
2022/09/02 02:31:44;;;;;;;4.82;1.80;;;;;;;9.17;100.00;98735.34;2627832;28;20052;-84
2022/09/02 02:32:59;;;;;;;6.05;2.80;;;;;;;9.05;100.00;98743.38;2627620;28;20044;-84
2022/09/02 02:34:15;;;;;;;2.25;1.90;;;;;;;9.10;100.00;98741.59;2628088;28;20113;-83
2022/09/02 02:35:31;;;;;;;3.05;2.03;;;;;;;9.11;100.00;98745.91;2627737;28;20449;-83
2022/09/02 02:36:46;;;;;;;2.80;2.13;;;;;;;9.06;100.00;98742.50;2627415;28;20039;-84
2022/09/02 02:38:03;;;;;;;3.75;2.33;;;;;;;8.93;100.00;98744.47;2627596;28;20410;-83
2022/09/02 02:39:18;;;;;;;2.72;2.30;;;;;;;8.81;100.00;98745.53;2627604;28;20100;-84
2022/09/02 02:40:34;;;;;;;5.38;2.22;;;;;;;8.82;100.00;98746.38;2627629;28;20607;-84
2022/09/02 02:41:50;;;;;;;2.38;2.17;;;;;;;8.80;100.00;98743.81;2627468;28;20048;-83
2022/09/02 02:43:05;;;;;;;3.15;2.47;;;;;;;8.89;100.00;98741.03;2627515;28;20075;-83
2022/09/02 02:44:21;;;;;;;2.40;2.10;;;;;;;8.92;100.00;98747.97;2627460;28;20052;-83
2022/09/02 02:45:38;;;;;;;4.68;2.33;;;;;;;8.97;100.00;98746.13;2626862;28;20076;-82
2022/09/02 02:46:54;;;;;;;3.03;2.00;;;;;;;8.98;100.00;98742.63;2627009;28;20104;-83
2022/09/02 02:48:09;;;;;;;2.80;2.10;;;;;;;8.98;100.00;98742.63;2627447;28;20055;-83
2022/09/02 02:49:26;;;;;;;5.10;2.53;;;;;;;9.01;100.00;98744.34;2626191;28;20052;-85
2022/09/02 02:50:42;;;;;;;3.60;2.58;;;;;;;8.98;100.00;98747.00;2627385;28;20438;-83
2022/09/02 02:51:57;;;;;;;4.25;2.30;;;;;;;8.96;100.00;98739.19;2627407;28;20154;-86
2022/09/02 02:53:13;;;;;;;2.30;2.05;;;;;;;8.90;100.00;98734.94;2627758;28;20113;-84
2022/09/02 02:54:28;;;;;;;2.72;2.20;;;;;;;8.84;100.00;98740.25;2627475;28;20052;-83
2022/09/02 02:55:44;;;;;;;2.45;2.17;;;;;;;8.79;100.00;98742.06;2627299;28;20059;-89
2022/09/02 02:57:01;;;;;;;3.75;2.70;;;;;;;8.85;100.00;98747.19;2627433;28;20048;-84
2022/09/02 02:58:17;;;;;;;3.40;1.95;;;;;;;8.90;100.00;98741.91;2627160;28;20094;-84
2022/09/02 02:59:33;;;;;;;3.22;2.05;;;;;;;8.89;100.00;98733.19;2627466;28;20079;-84
2022/09/02 03:00:49;;;;;;;2.25;2.03;;;;;;;8.88;100.00;98736.69;2626613;28;20109;-84
2022/09/02 03:02:05;;;;;;;2.83;1.98;;;;;;;8.86;100.00;98743.69;2626963;28;20510;-84
2022/09/02 03:03:22;;;;;;;2.92;2.22;;;;;;;8.88;100.00;98741.09;2627005;28;20067;-83
2022/09/02 03:04:38;;;;;;;3.42;2.10;;;;;;;8.64;100.00;98739.69;2627264;28;20044;-83
2022/09/02 03:05:54;;;;;;;3.17;2.00;;;;;;;8.75;100.00;98740.41;2627129;28;20048;-83
2022/09/02 03:07:10;;;;;;;3.17;2.08;;;;;;;8.55;100.00;98741.56;2627481;28;20420;-83
2022/09/02 03:08:25;;;;;;;4.50;2.00;;;;;;;8.56;100.00;98738.09;2627062;28;20058;-83
2022/09/02 03:09:41;;;;;;;2.22;2.03;;;;;;;8.61;100.00;98740.63;2627299;28;20211;-84
2022/09/02 03:10:58;;;;;;;3.15;2.30;;;;;;;8.64;100.00;98737.97;2627201;28;20060;-85
2022/09/02 03:12:15;;;;;;;2.67;2.08;;;;;;;8.59;100.00;98738.03;2627610;28;20047;-84
2022/09/02 03:13:32;;;;;;;4.45;2.00;;;;;;;8.64;100.00;98739.69;2627072;28;20479;-82
2022/09/02 03:14:48;;;;;;;2.88;2.03;;;;;;;8.64;100.00;98737.09;2627640;28;20056;-83
2022/09/02 03:16:05;;;;;;;1.95;1.63;;;;;;;8.55;100.00;98738.97;2627115;28;20048;-83
2022/09/02 03:17:20;;;;;;;3.42;1.85;;;;;;;8.55;100.00;98738.97;2627058;28;20043;-83
2022/09/02 03:18:36;;;;;;;2.50;2.15;;;;;;;8.58;100.00;98733.69;2626918;28;20059;-83
2022/09/02 03:19:52;;;;;;;5.10;1.95;;;;;;;8.60;100.00;98737.13;2627426;28;20482;-83
2022/09/02 03:21:09;;;;;;;5.07;1.83;;;;;;;8.66;100.00;98733.56;2627307;28;20932;-84
2022/09/02 03:22:28;;;;;;;2.50;1.77;;;;;;;8.62;100.00;98734.50;2626848;28;20135;-83
2022/09/02 03:23:44;;;;;;;2.72;1.83;;;;;;;8.67;100.00;98737.91;2626932;28;20052;-85
2022/09/02 03:25:00;;;;;;;2.85;1.88;;;;;;;8.70;100.00;98737.00;2627210;28;20040;-82
2022/09/02 03:26:22;;;;;;;2.30;1.90;;;;;;;8.64;100.00;98737.97;2623412;28;20625;-84
2022/09/02 03:27:39;;;;;;;2.30;1.85;;;;;;;8.68;100.00;98737.00;2625552;28;20047;-83
2022/09/02 03:28:58;;;;;;;3.20;2.08;;;;;;;8.74;100.00;98738.66;2626190;28;20122;-86
2022/09/02 03:30:18;;;;;;;4.00;2.10;;;;;;;8.65;100.00;98734.47;2626946;28;20059;-83
2022/09/02 03:31:34;;;;;;;3.38;1.90;;;;;;;8.66;100.00;98735.31;2626925;28;20062;-83
2022/09/02 03:32:58;;;;;;;3.40;2.20;;;;;;;8.70;100.00;98732.63;2627115;28;20052;-83
2022/09/02 03:34:14;;;;;;;2.55;2.05;;;;;;;8.72;100.00;98730.84;2627103;28;20727;-85
2022/09/02 03:35:31;;;;;;;2.50;2.00;;;;;;;8.72;100.00;98733.47;2626875;28;20074;-83
2022/09/02 03:36:47;;;;;;;4.75;1.95;;;;;;;8.68;100.00;98736.19;2627010;28;20071;-83
2022/09/02 03:38:03;;;;;;;2.33;1.83;;;;;;;8.69;100.00;98736.13;2627073;28;20048;-83
2022/09/02 03:39:19;;;;;;;2.03;1.80;;;;;;;8.71;100.00;98730.91;2627131;28;20421;-83
2022/09/02 03:40:35;;;;;;;2.58;2.15;;;;;;;8.68;100.00;98734.41;2626677;28;20040;-85
2022/09/02 03:41:51;;;;;;;2.13;1.92;;;;;;;8.65;100.00;98728.38;2626950;28;20495;-83
2022/09/02 03:43:07;;;;;;;2.08;1.80;;;;;;;8.50;100.00;98740.75;2626936;28;20044;-82
2022/09/02 03:44:22;;;;;;;2.42;2.10;;;;;;;8.47;100.00;98741.66;2627049;28;20055;-83
2022/09/02 03:45:40;;;;;;;4.15;2.17;;;;;;;8.50;100.00;98737.28;2627037;28;20048;-87
2022/09/02 03:46:56;;;;;;;2.30;1.90;;;;;;;8.42;100.00;98740.00;2627078;28;20087;-83
2022/09/02 03:48:12;;;;;;;2.45;2.13;;;;;;;8.37;100.00;98736.56;2626604;28;20064;-82
2022/09/02 03:49:27;;;;;;;3.45;2.08;;;;;;;8.32;100.00;98739.28;2626549;28;20106;-83
2022/09/02 03:50:46;;;;;;;3.15;1.88;;;;;;;8.33;100.00;98741.84;2626778;28;20074;-83
2022/09/02 03:52:02;;;;;;;3.17;1.80;;;;;;;8.31;100.00;98741.00;2626992;28;20048;-83
2022/09/02 03:53:17;;;;;;;2.58;1.83;;;;;;;8.35;100.00;98739.22;2626357;28;20048;-86
2022/09/02 03:54:33;;;;;;;3.97;2.20;;;;;;;8.20;100.00;98737.66;2626693;28;20048;-83
2022/09/02 03:55:49;;;;;;;2.95;2.30;;;;;;;8.14;100.00;98740.38;2625721;28;20051;-84
2022/09/02 03:57:05;;;;;;;2.40;2.15;;;;;;;8.03;100.00;98741.38;2626323;28;20052;-84
2022/09/02 03:58:22;;;;;;;3.75;2.03;;;;;;;8.10;100.00;98741.28;2626487;28;20792;-84
2022/09/02 03:59:39;;;;;;;4.72;2.10;;;;;;;8.13;100.00;98741.25;2626908;28;20051;-83
2022/09/02 04:00:55;;;;;;;4.07;2.22;;;;;;;8.12;100.00;98740.38;2626736;28;20051;-84
2022/09/02 04:02:11;;;;;;;3.33;2.35;;;;;;;8.08;100.00;98738.72;2625633;28;20048;-84
2022/09/02 04:03:27;;;;;;;4.88;2.33;;;;;;;7.96;100.00;98751.91;2626776;28;20048;-86
2022/09/02 04:04:42;;;;;;;3.60;2.15;;;;;;;7.99;100.00;98747.53;2626995;28;20058;-83
2022/09/02 04:05:58;;;;;;;2.35;2.15;;;;;;;7.97;100.00;98749.28;2626911;28;20052;-84
2022/09/02 04:07:14;;;;;;;5.38;2.50;;;;;;;7.99;100.00;98755.34;2626945;28;20052;-83
2022/09/02 04:08:29;;;;;;;2.95;2.08;;;;;;;7.88;100.00;98752.84;2626685;28;20144;-85
2022/09/02 04:09:45;;;;;;;2.97;2.15;;;;;;;7.88;100.00;98752.84;2627134;28;20697;-84
2022/09/02 04:11:05;;;;;;;3.83;2.05;;;;;;;7.93;100.00;98746.72;2626657;28;20482;-84
2022/09/02 04:12:21;;;;;;;4.85;2.10;;;;;;;7.99;100.00;98746.66;2627125;28;20461;-84
2022/09/02 04:13:37;;;;;;;2.53;2.13;;;;;;;7.95;100.00;98751.03;2626831;28;20044;-85
2022/09/02 04:14:53;;;;;;;2.33;2.10;;;;;;;7.96;100.00;98750.16;2626296;28;20456;-85
2022/09/02 04:16:15;;;;;;;7.65;2.30;;;;;;;7.96;100.00;98752.78;2626970;28;20074;-84
2022/09/02 04:17:31;;;;;;;2.08;1.85;;;;;;;8.00;100.00;98754.47;2626435;28;20105;-83
2022/09/02 04:18:47;;;;;;;5.38;2.08;;;;;;;7.98;100.00;98748.41;2626846;28;20083;-84
2022/09/02 04:20:07;;;;;;;2.92;2.00;;;;;;;8.05;100.00;98754.41;2626897;28;20045;-84
2022/09/02 04:21:24;;;;;;;3.63;1.95;;;;;;;8.05;100.00;98760.47;2627367;28;20510;-86
2022/09/02 04:22:40;;;;;;;3.75;2.30;;;;;;;8.08;100.00;98750.88;2626775;28;20040;-89
2022/09/02 04:23:56;;;;;;;3.00;1.98;;;;;;;8.09;100.00;98747.38;2626874;28;20052;-88
2022/09/02 04:25:11;;;;;;;3.90;2.10;;;;;;;8.08;100.00;98743.94;2626690;28;20077;-84
2022/09/02 04:26:27;;;;;;;2.85;2.20;;;;;;;8.10;100.00;98749.97;2626085;28;20071;-83
2022/09/02 04:27:43;;;;;;;2.95;2.20;;;;;;;8.16;100.00;98746.44;2625345;28;20052;-83
2022/09/02 04:28:59;;;;;;;4.40;2.22;;;;;;;8.22;100.00;98746.34;2626532;28;20451;-83
2022/09/02 04:30:15;;;;;;;2.83;2.35;;;;;;;8.20;100.00;98748.97;2625465;28;20501;-84
2022/09/02 04:31:31;;;;;;;3.70;2.20;;;;;;;8.19;100.00;98749.88;2626138;28;20456;-83
2022/09/02 04:32:48;;;;;;;2.35;1.90;;;;;;;8.20;100.00;98753.31;2626516;28;20109;-85
2022/09/02 04:34:05;;;;;;;2.70;1.85;;;;;;;8.26;100.00;98757.59;2626192;28;20442;-83
2022/09/02 04:35:21;;;;;;;3.13;2.25;;;;;;;8.28;100.00;98754.09;2625331;28;20135;-83
2022/09/02 04:36:36;;;;;;;2.50;1.90;;;;;;;8.18;100.00;98755.97;2635537;28;20472;-85
2022/09/02 04:37:52;;;;;;;3.40;2.00;;;;;;;8.11;100.00;98756.06;2632171;28;20410;-84
2022/09/02 04:39:08;;;;;;;2.42;2.10;;;;;;;8.11;100.00;98767.34;2626465;28;20048;-84
2022/09/02 04:40:24;;;;;;;3.90;2.15;;;;;;;8.05;100.00;98764.84;2626218;28;20431;-84
2022/09/02 04:41:41;;;;;;;4.45;2.22;;;;;;;8.05;100.00;98763.06;2626544;28;20272;-84
2022/09/02 04:42:57;;;;;;;2.83;2.03;;;;;;;8.09;100.00;98768.25;2625810;28;20048;-84
2022/09/02 04:44:12;;;;;;;3.95;2.10;;;;;;;8.09;100.00;98766.50;2625886;28;20052;-84
2022/09/02 04:45:28;;;;;;;2.88;2.20;;;;;;;8.02;100.00;98762.25;2626159;28;20686;-84
2022/09/02 04:46:44;;;;;;;3.05;2.15;;;;;;;8.06;100.00;98756.13;2626368;28;20407;-83
2022/09/02 04:48:02;;;;;;;2.53;2.20;;;;;;;8.03;100.00;98757.03;2626047;28;20177;-84
2022/09/02 04:49:21;;;;;;;3.38;2.20;;;;;;;8.02;100.00;98760.50;2625898;28;20063;-84
2022/09/02 04:50:38;;;;;;;2.50;2.20;;;;;;;8.07;100.00;98757.84;2626495;28;20805;-86
2022/09/02 04:51:53;;;;;;;3.30;1.98;;;;;;;8.05;100.00;98757.00;2626134;28;20052;-84
2022/09/02 04:53:10;;;;;;;4.50;2.40;;;;;;;8.10;100.00;98756.94;2627964;28;20184;-84
2022/09/02 04:54:26;;;;;;;2.97;2.17;;;;;;;8.10;100.00;98759.53;2628179;28;20039;-85
2022/09/02 04:55:42;;;;;;;3.55;2.50;;;;;;;8.18;100.00;98752.47;2628557;28;20121;-84
2022/09/02 04:56:57;;;;;;;2.78;2.40;;;;;;;8.25;100.00;98754.16;2628204;28;20517;-85
2022/09/02 04:58:15;;;;;;;2.75;2.17;;;;;;;8.29;100.00;98757.56;2628477;28;20048;-84
2022/09/02 04:59:31;;;;;;;3.75;2.13;;;;;;;8.30;100.00;98756.66;2628236;28;20048;-84
2022/09/02 05:00:47;;;;;;;2.88;2.15;;;;;;;8.29;100.00;98757.56;2628260;28;20052;-84
2022/09/02 05:02:04;;;;;;;4.55;2.20;;;;;;;8.31;100.00;98750.56;2628559;28;20044;-83
2022/09/02 05:03:20;;;;;;;2.20;1.95;;;;;;;8.34;100.00;98751.38;2628293;28;20113;-87
2022/09/02 05:04:36;;;;;;;2.75;2.20;;;;;;;8.33;100.00;98759.25;2628056;28;20056;-84
2022/09/02 05:05:59;;;;;;;3.03;2.13;;;;;;;8.32;100.00;98755.78;2628644;28;20475;-84
2022/09/02 05:07:15;;;;;;;3.70;2.20;;;;;;;8.37;100.00;98760.94;2627655;28;20063;-84
2022/09/02 05:08:32;;;;;;;3.25;2.20;;;;;;;8.40;100.00;98755.66;2628499;28;20314;-89
2022/09/02 05:09:48;;;;;;;5.07;2.80;;;;;;;8.45;100.00;98760.81;2628498;28;20140;-84
2022/09/02 05:11:09;;;;;;;3.55;2.35;;;;;;;8.52;100.00;98757.28;2628419;28;20052;-84
2022/09/02 05:12:27;;;;;;;4.07;2.50;;;;;;;8.52;100.00;98762.50;2627862;28;20051;-83
2022/09/02 05:13:48;;;;;;;4.63;2.40;;;;;;;8.57;100.00;98760.69;2628396;28;20063;-84
2022/09/02 05:15:04;;;;;;;3.78;2.60;;;;;;;8.61;100.00;98758.91;2628187;28;20056;-84
2022/09/02 05:16:23;;;;;;;7.65;2.90;;;;;;;8.60;100.00;98759.78;2628678;28;20052;-84
2022/09/02 05:17:39;;;;;;;5.30;2.88;;;;;;;8.62;100.00;98764.06;2628099;28;20052;-84
2022/09/02 05:18:55;;;;;;;4.80;2.67;;;;;;;8.60;100.00;98754.56;2628537;28;20491;-83
2022/09/02 05:20:12;;;;;;;3.35;2.80;;;;;;;8.62;100.00;98756.25;2628474;28;20406;-83
2022/09/02 05:21:27;;;;;;;3.42;2.63;;;;;;;8.63;100.00;98757.13;2628391;28;20482;-84
2022/09/02 05:22:43;;;;;;;4.47;2.65;;;;;;;8.68;100.00;98755.28;2627995;28;20047;-85
2022/09/02 05:23:59;;;;;;;3.35;2.90;;;;;;;8.74;100.00;98760.44;2628444;28;20044;-84
2022/09/02 05:25:15;;;;;;;3.78;2.75;;;;;;;8.76;100.00;98755.16;2628458;28;20562;-85
2022/09/02 05:26:32;;;;;;;6.88;3.13;;;;;;;8.78;100.00;98750.78;2628422;28;20048;-85
2022/09/02 05:27:47;;;;;;;4.15;2.92;;;;;;;8.81;100.00;98757.72;2627763;28;20044;-85
2022/09/02 05:29:07;;;;;;;3.28;2.72;;;;;;;8.81;100.00;98755.09;2628313;28;20080;-85
2022/09/02 05:30:22;;;;;;;5.40;3.13;;;;;;;8.85;100.00;98752.44;2628840;28;20389;-87
2022/09/02 05:31:40;;;;;;;3.47;2.88;;;;;;;8.87;100.00;98753.25;2628124;28;20052;-86
2022/09/02 05:32:56;;;;;;;5.63;3.03;;;;;;;8.93;100.00;98751.41;2628946;28;20407;-85
2022/09/02 05:34:13;;;;;;;8.60;3.47;;;;;;;8.94;100.00;98754.03;2628246;28;20048;-85
2022/09/02 05:35:28;;;;;;;7.22;3.38;;;;;;;8.97;100.00;98746.13;2629187;28;20487;-86
2022/09/02 05:36:44;;;;;;;4.80;3.30;;;;;;;9.03;100.00;98753.00;2628111;28;20052;-85
2022/09/02 05:38:00;;;;;;;5.03;3.33;;;;;;;9.03;100.00;98742.56;2628911;28;20040;-85
2022/09/02 05:39:15;;;;;;;4.05;3.10;;;;;;;9.10;100.00;98745.94;2628138;28;20075;-85
2022/09/02 05:40:33;;;;;;;5.93;3.10;;;;;;;9.08;100.00;98748.59;2628506;28;20108;-88
2022/09/02 05:41:48;;;;;;;5.95;3.28;;;;;;;9.19;100.00;98748.38;2627651;28;20051;-86
2022/09/02 05:43:05;;;;;;;4.40;3.17;;;;;;;9.28;100.00;98752.59;2628822;28;20504;-85
2022/09/02 05:44:21;;;;;;;6.35;3.33;;;;;;;9.33;100.00;98748.13;2628060;28;20052;-87
2022/09/02 05:45:37;;;;;;;6.43;3.60;;;;;;;9.26;100.00;98751.75;2628650;28;20051;-86
2022/09/02 05:46:54;;;;;;;4.10;3.20;;;;;;;9.27;100.00;98753.47;2628208;28;20471;-86
2022/09/02 05:49:44;;;;;;;7.40;3.17;;;;;;;9.44;100.00;98750.56;2628165;28;20044;-86
2022/09/02 05:51:04;;;;;;;6.38;3.10;;;;;;;9.46;100.00;98752.25;2628877;28;20056;-86
2022/09/02 05:52:20;;;;;;;3.78;3.05;;;;;;;9.35;100.00;98748.13;2628080;28;20092;-86
2022/09/02 05:53:35;;;;;;;3.83;3.03;;;;;;;9.52;100.00;98753.03;2628915;28;20475;-87
2022/09/02 05:54:51;;;;;;;5.57;2.92;;;;;;;9.65;100.00;98749.31;2628143;28;20614;-86
2022/09/02 05:56:07;;;;;;;3.67;2.60;;;;;;;9.75;100.00;98753.44;2628530;28;20051;-86
2022/09/02 05:57:24;;;;;;;4.93;2.92;;;;;;;9.68;100.00;98745.75;2628211;28;20477;-89
2022/09/02 05:58:39;;;;;;;3.00;2.70;;;;;;;9.75;100.00;98757.81;2628532;28;20543;-87
2022/09/02 05:59:55;;;;;;;3.58;2.67;;;;;;;9.73;100.00;98746.53;2628137;28;20059;-86
2022/09/02 06:01:15;;;;;;;7.53;3.25;;;;;;;9.96;100.00;98742.56;2628756;28;20426;-87
2022/09/02 06:02:31;;;;;;;4.78;3.05;;;;;;;9.98;100.00;98752.13;2627855;28;20044;-86
2022/09/02 06:03:46;;;;;;;10.95;3.10;;;;;;;10.04;100.00;98751.97;2630233;28;20647;-86